ADDS METAR Data INFO
IDs: Format: Raw Decoded Include TAF

Data at: 1717 UTC 23 Oct 2017

KFOD 231656Z AUTO 31010G24KT 10SM FEW090 13/05 A2990 RMK AO2 RAE01 SLP152 P0000 T01330050
KFOD 231556Z AUTO VRB06KT 10SM -RA SCT070 OVC090 12/06 A2988 RMK AO2 RAB44 SLP147 P0000 T01170061
KFOD 231456Z AUTO 32009G16KT 10SM FEW110 14/05 A2987 RMK AO2 SLP141 T01390050 51004
KFOD 231356Z AUTO 31009G19KT 10SM BKN100 11/03 A2986 RMK AO2 SLP141 T01110033
KFOD 231256Z AUTO 25004KT 10SM FEW110 07/03 A2985 RMK AO2 SLP140 T00670028
KFOD 231156Z AUTO 23007KT 10SM CLR 07/03 A2985 RMK AO2 SLP138 T00670028 10100 20067 55006
KFOD 231056Z AUTO 20008KT 10SM CLR 09/02 A2984 RMK AO2 SLP132 T00940022
KFOD 230956Z AUTO 19005KT 10SM CLR 09/02 A2986 RMK AO2 SLP136 T00940017
KFOD 230856Z AUTO 19007KT 10SM CLR 09/02 A2987 RMK AO2 SLP141 T00940017 58022
KFOD 230756Z AUTO 19009KT 10SM CLR 09/02 A2990 RMK AO2 SLP151 T00890017
KFOD 230656Z AUTO 18009KT 10SM CLR 09/01 A2991 RMK AO2 SLP156 T00940011
KFOD 230556Z AUTO 18010KT 10SM CLR 10/01 A2994 RMK AO2 SLP165 T01000011 10139 20100 401830072 58013
KFOD 230456Z AUTO 17008KT 10SM CLR 10/01 A2995 RMK AO2 SLP169 T01000006
KFOD 230356Z AUTO 17006KT 10SM CLR 11/01 A2997 RMK AO2 SLP176 T01060006
KFOD 230256Z AUTO 16006KT 10SM CLR 11/01 A2998 RMK AO2 SLP181 T01110006 58010
KFOD 230156Z AUTO 17005KT 10SM CLR 12/01 A2999 RMK AO2 SLP185 T01220006
KFOD 230056Z AUTO 16005KT 10SM CLR 13/01 A3000 RMK AO2 SLP188 T01280011
KFOD 222356Z AUTO 17004KT 10SM CLR 14/01 A3001 RMK AO2 SLP191 T01440006 10183 20144 56003
KFOD 222256Z AUTO 20005KT 10SM CLR 16/02 A3001 RMK AO2 SLP191 T01560017
KFOD 222056Z AUTO VRB05KT 10SM CLR 18/M01 A3002 RMK AO2 SLP193 T01781006 56012 TSNO
KFOD 221956Z AUTO 27006KT 10SM CLR 18/00 A3003 RMK AO2 SLP195 T01830000
KFOD 221856Z AUTO 28009KT 10SM CLR 18/01 A3004 RMK AO2 SLP199 T01780006
KFOD 221756Z AUTO 28009KT 10SM CLR 17/03 A3005 RMK AO2 SLP205 T01670033 10167 20072 58007
KFOD 221656Z AUTO 28010KT 10SM CLR 16/05 A3007 RMK AO2 SLP209 T01560050
KFOD 221556Z AUTO 27006KT 10SM CLR 13/06 A3008 RMK AO2 SLP215 T01280056
KFOD 221456Z AUTO 27005KT 10SM CLR 11/06 A3007 RMK AO2 SLP213 T01110056 53016
KFOD 221356Z AUTO 00000KT 10SM CLR 08/04 A3007 RMK AO2 SLP212 T00780044
KFOD 221256Z AUTO 00000KT 10SM CLR 08/05 A3003 RMK AO2 SLP199 T00780050
KFOD 221156Z AUTO 29003KT 10SM CLR 08/06 A3002 RMK AO2 SLP197 70034 T00830056 10100 20078 53017
KFOD 221056Z AUTO 00000KT 10SM CLR 09/06 A3001 RMK AO2 SLP191 T00890056
KFOD 220956Z AUTO 30003KT 10SM CLR 09/06 A2998 RMK AO2 SLP178 T00940056
KFOD 220856Z AUTO VRB03KT 10SM CLR 09/06 A2997 RMK AO2 SLP176 T00890061 53011
KFOD 220756Z AUTO 30004KT 10SM CLR 09/06 A2996 RMK AO2 SLP171 T00940061
KFOD 220656Z AUTO 27004KT 10SM CLR 09/06 A2995 RMK AO2 SLP169 T00940061
KFOD 220556Z AUTO 29004KT 10SM CLR 10/06 A2994 RMK AO2 SLP165 T01000061 10133 20100 402110100 50018